Portada
METAR-TAF:

METAR-TAF

Aeroports :

Gachsaran, Iran

latitud: 30-26N, longitud: 050-46E, altitud: 738 m

Observació

L'informe es va fer fa 1 hora i 10 minuts, a les 10:00 UTC
Vent calma
Temperatura 30°C
Humitat 19%
Pressió 1017 hPa
Visibilitat 10 km o més
sense núvols per sota de 1500 mi sense presència de cumulonimbus.

METAR: OIAH 221000Z 00000KT CAVOK 30/04 Q1017

Hora: 14:40 (11:10 UTC)


TAF: manca

Observacions i pronòstics meteorològics de més de 4000 aeroports (METAR i TAF).

Les estacions disponibles són els punts grocs i vermells al mapa.

Posi el ratolí al punt desitjat per veure el nom de l'estació.

Feu clic per veure les observacions i els pronòstics meteorològics.

Per canviar el mapa: feu clic els botons verds amb una creu de color negre per apropar; al botó verd amb un guió per allunyar la imatge; o en les fletxes verdes per a mapes adjacents.


METAR-TAF: